Airport Name : Danang Intl

Other Name : Danang Intl

ICAO : VVDN

IATA : DAD

FAA :

Latitude : 16.043917

Longitude : 108.19937

Country : Vietnam

Local Date and Time : 15 Jan 2021 21:13

 

TAF (Terminal Aerodrome Forecast)

TAF VVDN 151100Z 1512/1612 33004KT 7000 FEW015 BKN060 BECMG 1521/1522 3000 BR BECMG 1600/1602 7000 NSW

 

METAR (METeorological Aerodrome Report)

VVDN 151400Z 22001KT 7000 SCT015 BKN060 20/16 Q1014 NOSIG

VVDN 151330Z VRB02KT 7000 SCT015 BKN060 20/17 Q1014 NOSIG

VVDN 151300Z 33003KT 7000 SCT015 BKN060 21/17 Q1014 NOSIG

VVDN 151230Z 32002KT 7000 SCT015 BKN060 21/17 Q1014 NOSIG

VVDN 151200Z 32003KT 7000 SCT015 BKN060 21/17 Q1013 NOSIG

VVDN 151130Z 31004KT 7000 SCT015 BKN060 21/16 Q1013 NOSIG

VVDN 151100Z 32004KT 7000 SCT015 BKN060 21/17 Q1013 NOSIG

VVDN 151030Z 32003KT 7000 FEW015 BKN060 21/16 Q1013 NOSIG

To Charter a Jet Click here.